Time;durP1;ratioP1;P1;durP2;ratioP2;P2;SDS_P1;SDS_P2;PMS_P1;PMS_P2;Temp;Humidity;BMP_temperature;BMP_pressure;BME280_temperature;BME280_humidity;BME280_pressure;Samples;Min_cycle;Max_cycle;Signal;HPM_P1;HPM_P2
2022/10/11 00:02:17;;;;;;;4.00;2.70;;;;;;;4.87;58.24;97737.91;6344881;27;1480389;-68
2022/10/11 00:05:29;;;;;;;3.97;2.78;;;;;;;4.81;58.47;97749.41;6343062;27;1528434;-68
2022/10/11 00:08:45;;;;;;;7.40;2.90;;;;;;;4.77;58.43;97739.09;6444978;27;20579;-68
2022/10/11 00:11:57;;;;;;;6.85;3.35;;;;;;;4.75;57.99;97736.53;6346416;27;1432908;-68
2022/10/11 00:15:14;;;;;;;8.05;3.88;;;;;;;4.74;58.36;97737.44;6317452;27;21206;-67
2022/10/11 00:18:25;;;;;;;7.05;3.65;;;;;;;4.78;58.16;97743.41;6342655;27;1543562;-69
2022/10/11 00:21:38;;;;;;;6.70;3.33;;;;;;;4.78;58.18;97752.06;6338964;27;1644669;-70
2022/10/11 00:24:52;;;;;;;6.43;3.80;;;;;;;4.75;57.93;97753.91;6445609;27;20174;-69
2022/10/11 00:28:02;;;;;;;9.85;5.22;;;;;;;5.26;57.46;97758.56;6346363;27;1400089;-69
2022/10/11 00:31:17;;;;;;;19.23;8.48;;;;;;;4.98;57.98;97748.06;6342013;27;1555452;-69
2022/10/11 00:34:31;;;;;;;8.45;4.45;;;;;;;4.92;58.13;97749.94;6419217;27;20163;-69
2022/10/11 00:37:45;;;;;;;8.07;4.70;;;;;;;4.86;57.99;97739.69;6445697;27;20556;-69
2022/10/11 00:40:56;;;;;;;7.68;5.07;;;;;;;4.89;58.56;97747.41;6321063;27;2127964;-68
2022/10/11 00:44:17;;;;;;;7.20;3.78;;;;;;;4.87;58.78;97761.38;6343294;27;1519633;-68
2022/10/11 00:47:32;;;;;;;3.95;3.33;;;;;;;4.82;58.71;97753.72;6342808;27;20781;-69
2022/10/11 00:50:46;;;;;;;7.68;3.60;;;;;;;4.81;58.84;97757.22;6445526;27;20223;-68
2022/10/11 00:54:05;;;;;;;5.43;3.22;;;;;;;4.81;58.74;97754.63;6317035;27;20943;-69
2022/10/11 00:57:26;;;;;;;9.77;3.58;;;;;;;4.82;59.18;97753.72;6342780;27;20825;-68
2022/10/11 01:00:39;;;;;;;9.65;3.95;;;;;;;4.80;59.07;97755.50;6292291;27;20785;-70
2022/10/11 01:03:53;;;;;;;7.75;3.72;;;;;;;4.83;59.58;97757.19;6317485;27;2228525;-69
2022/10/11 01:07:07;;;;;;;6.85;4.22;;;;;;;4.77;59.79;97755.59;6292458;28;21287;-68
2022/10/11 01:10:20;;;;;;;9.90;3.95;;;;;;;4.79;60.14;97759.03;6318220;27;2145503;-69
2022/10/11 01:13:46;;;;;;;8.00;3.90;;;;;;;4.78;59.99;97757.28;6246973;27;4238381;-67
2022/10/11 01:17:09;;;;;;;6.93;3.67;;;;;;;4.75;60.11;97757.38;6344191;27;1499919;-68
2022/10/11 01:20:56;;;;;;;8.27;4.65;;;;;;;4.77;60.27;97760.81;6419446;27;20138;-69
2022/10/11 01:24:28;;;;;;;9.38;4.18;;;;;;;4.82;60.14;97758.94;6445595;27;20264;-69
2022/10/11 01:27:46;;;;;;;10.60;4.43;;;;;;;4.80;60.32;97760.72;6345168;27;1470261;-69
2022/10/11 01:31:14;;;;;;;7.80;3.90;;;;;;;4.80;60.46;97760.72;6393818;27;20149;-69
2022/10/11 01:34:42;;;;;;;6.22;3.75;;;;;;;4.83;61.20;97765.00;6419350;27;20523;-68
2022/10/11 01:38:06;;;;;;;5.75;3.38;;;;;;;4.85;61.36;97753.63;6343332;27;1518701;-68
2022/10/11 01:41:33;;;;;;;7.03;3.35;;;;;;;4.93;61.88;97756.88;6293249;27;20747;-68
2022/10/11 01:44:49;;;;;;;6.30;3.38;;;;;;;5.01;61.69;97758.41;6419702;27;20524;-67
2022/10/11 01:48:12;;;;;;;7.65;3.40;;;;;;;5.08;62.16;97765.16;6344727;27;1484151;-68
2022/10/11 01:51:32;;;;;;;9.52;3.33;;;;;;;5.08;62.21;97757.34;6445496;27;20657;-69
2022/10/11 01:55:15;;;;;;;6.05;3.50;;;;;;;5.10;62.60;97755.56;6342457;27;20527;-68
2022/10/11 01:58:39;;;;;;;7.03;4.90;;;;;;;5.10;62.62;97752.94;6342490;27;20752;-68
2022/10/11 02:01:53;;;;;;;7.22;3.70;;;;;;;5.22;62.39;97756.94;6340214;27;1605992;-68
2022/10/11 02:05:41;;;;;;;7.43;3.20;;;;;;;5.23;62.38;97754.28;6341874;27;1556450;-69
2022/10/11 02:09:10;;;;;;;5.63;2.90;;;;;;;5.19;61.88;97755.28;6346502;27;1437593;-68
2022/10/11 02:12:50;;;;;;;4.68;2.47;;;;;;;5.24;62.27;97752.53;6317868;27;20724;-69
2022/10/11 02:16:05;;;;;;;5.00;2.50;;;;;;;5.36;61.27;97768.69;6344603;27;1488545;-70
2022/10/11 02:19:26;;;;;;;4.18;2.63;;;;;;;5.48;60.86;97753.56;6342849;27;20846;-68
2022/10/11 02:22:42;;;;;;;3.22;1.92;;;;;;;5.46;60.78;97760.56;6342421;27;1545787;-69
2022/10/11 02:25:55;;;;;;;6.15;2.38;;;;;;;5.36;60.42;97749.56;6316513;27;1498008;-69
2022/10/11 02:29:11;;;;;;;3.83;2.55;;;;;;;5.38;60.65;97746.00;6334928;27;1742966;-69
2022/10/11 02:32:25;;;;;;;3.40;2.00;;;;;;;5.40;60.46;97752.00;6338975;27;1640643;-68
2022/10/11 02:35:45;;;;;;;3.67;2.28;;;;;;;5.48;60.26;97753.56;6445448;27;20413;-70
2022/10/11 02:39:06;;;;;;;3.40;2.42;;;;;;;5.56;59.82;97751.56;6342323;27;20687;-70
2022/10/11 02:42:32;;;;;;;4.95;2.47;;;;;;;5.65;59.50;97748.66;6419206;27;20547;-70
2022/10/11 02:45:49;;;;;;;5.15;2.28;;;;;;;5.76;59.73;97754.41;6342172;27;1552342;-69
2022/10/11 02:49:06;;;;;;;4.82;2.13;;;;;;;5.86;59.41;97747.16;6419176;27;21097;-69
2022/10/11 02:52:20;;;;;;;2.92;2.50;;;;;;;5.91;59.24;97752.19;6445105;27;20629;-69
2022/10/11 02:55:34;;;;;;;3.15;2.75;;;;;;;6.01;59.13;97748.44;6418975;27;20520;-69
2022/10/11 02:58:49;;;;;;;8.05;3.28;;;;;;;6.14;58.58;97751.47;6419168;27;20535;-69
2022/10/11 03:01:59;;;;;;;9.70;3.55;;;;;;;6.26;58.53;97751.09;6347667;27;1388186;-69
2022/10/11 03:05:12;;;;;;;7.68;3.20;;;;;;;6.38;57.98;97749.81;6342882;27;20802;-69
2022/10/11 03:08:25;;;;;;;5.45;3.00;;;;;;;6.49;57.73;97739.84;6320021;27;2138534;-70
2022/10/11 03:11:39;;;;;;;5.03;2.80;;;;;;;6.63;57.25;97747.22;6444937;27;20599;-68
2022/10/11 03:14:52;;;;;;;5.82;2.28;;;;;;;6.69;57.04;97747.84;6342180;27;20657;-69
2022/10/11 03:18:03;;;;;;;7.35;2.40;;;;;;;6.82;56.64;97752.63;6318935;27;2177776;-70
2022/10/11 03:21:20;;;;;;;3.42;2.45;;;;;;;6.90;56.28;97745.38;6445443;27;20618;-69
2022/10/11 03:24:34;;;;;;;5.40;2.20;;;;;;;7.01;56.21;97752.84;6342367;27;20815;-69
2022/10/11 03:27:48;;;;;;;5.82;2.35;;;;;;;7.09;55.92;97748.19;6342417;27;21240;-70
2022/10/11 03:31:01;;;;;;;4.72;2.35;;;;;;;7.17;55.54;97748.75;6445430;27;21002;-68
2022/10/11 03:34:15;;;;;;;3.30;2.30;;;;;;;7.28;55.29;97751.81;6337871;27;1666467;-69
2022/10/11 03:37:28;;;;;;;10.07;2.03;;;;;;;7.41;55.17;97744.34;6445437;27;20622;-69
2022/10/11 03:40:42;;;;;;;4.32;1.85;;;;;;;7.52;54.70;97742.16;6419206;27;20134;-69
2022/10/11 03:43:56;;;;;;;1.90;1.50;;;;;;;7.68;53.85;97759.91;6293043;27;20679;-68
2022/10/11 03:47:11;;;;;;;3.78;1.45;;;;;;;7.71;53.57;97758.03;6419450;27;20460;-69
2022/10/11 03:50:25;;;;;;;2.78;1.60;;;;;;;7.75;53.36;97745.66;6310774;27;1720574;-69
2022/10/11 03:53:36;;;;;;;5.90;1.60;;;;;;;7.99;53.08;97760.41;6325335;27;2027037;-69
2022/10/11 03:56:47;;;;;;;3.67;1.55;;;;;;;8.14;52.38;97756.28;6343852;27;1503860;-69
2022/10/11 03:59:57;;;;;;;3.88;1.77;;;;;;;8.32;52.00;97758.19;6344902;27;1473308;-69
2022/10/11 04:03:36;;;;;;;4.38;1.80;;;;;;;8.56;51.51;97765.09;6291858;28;21377;-68
2022/10/11 04:06:50;;;;;;;2.17;1.27;;;;;;;8.70;51.15;97758.34;6393678;27;20998;-68
2022/10/11 04:10:04;;;;;;;5.85;1.75;;;;;;;8.90;50.68;97770.59;6445440;27;20258;-69
2022/10/11 04:13:16;;;;;;;3.17;1.90;;;;;;;9.15;50.03;97753.75;6344325;27;1494552;-68
2022/10/11 04:16:27;;;;;;;4.57;2.83;;;;;;;9.35;49.51;97760.75;6346970;27;1418430;-69
2022/10/11 04:19:42;;;;;;;5.22;2.83;;;;;;;9.37;49.79;97759.75;6317469;27;20280;-68
2022/10/11 04:22:55;;;;;;;4.93;2.58;;;;;;;9.52;49.46;97762.59;6419819;27;21094;-69
2022/10/11 04:26:10;;;;;;;4.03;2.20;;;;;;;9.65;49.59;97763.69;6445747;27;20621;-68
2022/10/11 04:29:48;;;;;;;3.93;2.30;;;;;;;9.80;49.27;97760.38;6317965;27;1638384;-69
2022/10/11 04:33:02;;;;;;;4.82;2.00;;;;;;;9.89;49.27;97752.03;6343866;27;1507586;-69
2022/10/11 04:36:15;;;;;;;2.92;2.00;;;;;;;10.05;48.88;97749.53;6445835;27;20156;-68
2022/10/11 04:39:29;;;;;;;5.40;1.75;;;;;;;9.94;48.81;97738.69;6342436;27;20670;-69
2022/10/11 04:42:42;;;;;;;2.63;1.77;;;;;;;10.03;48.84;97742.63;6342353;27;20650;-68
2022/10/11 04:45:53;;;;;;;3.30;2.00;;;;;;;10.20;48.10;97741.81;6335518;27;1704676;-69
2022/10/11 04:49:07;;;;;;;3.38;1.75;;;;;;;10.38;47.67;97750.59;6343893;27;1509800;-71
2022/10/11 04:52:18;;;;;;;3.25;1.50;;;;;;;10.39;47.50;97749.66;6346936;27;1421172;-69
2022/10/11 04:55:30;;;;;;;5.15;1.48;;;;;;;10.49;47.14;97753.53;6345167;27;1465362;-68
2022/10/11 04:58:52;;;;;;;4.80;2.50;;;;;;;10.65;47.21;97746.56;6445307;27;20177;-68
2022/10/11 05:02:04;;;;;;;5.03;1.40;;;;;;;10.92;46.29;97748.69;6338944;27;1649737;-69
2022/10/11 05:05:16;;;;;;;3.60;1.50;;;;;;;11.14;46.09;97751.91;6345288;27;1467417;-69
2022/10/11 05:08:26;;;;;;;3.10;1.45;;;;;;;11.46;45.27;97744.91;6350683;27;1549052;-68
2022/10/11 05:11:41;;;;;;;2.95;1.52;;;;;;;11.82;44.53;97740.31;6291849;27;21208;-69
2022/10/11 05:14:54;;;;;;;5.43;1.58;;;;;;;11.96;43.99;97742.22;6319824;27;2155729;-69
2022/10/11 05:18:07;;;;;;;5.15;1.40;;;;;;;11.94;43.98;97734.38;6339450;27;1633422;-69
2022/10/11 05:21:29;;;;;;;6.18;1.90;;;;;;;12.13;43.37;97735.03;6419659;27;20122;-68
2022/10/11 05:24:40;;;;;;;4.05;1.33;;;;;;;12.31;43.17;97734.91;6344107;27;1497984;-68
2022/10/11 05:27:50;;;;;;;2.35;1.30;;;;;;;12.52;42.36;97728.38;6348320;27;1389348;-69
2022/10/11 05:31:02;;;;;;;3.60;1.50;;;;;;;12.49;42.47;97710.09;6342015;27;1552993;-69
2022/10/11 05:34:16;;;;;;;3.35;1.20;;;;;;;12.73;42.03;97714.84;6293174;27;20703;-68
2022/10/11 05:37:30;;;;;;;3.58;1.50;;;;;;;12.83;41.71;97721.28;6316534;27;2249885;-68
2022/10/11 05:40:44;;;;;;;2.58;1.05;;;;;;;12.98;41.42;97711.56;6342352;27;20794;-69
2022/10/11 05:43:57;;;;;;;2.53;1.25;;;;;;;13.19;41.01;97709.38;6342571;27;1541483;-69
2022/10/11 05:47:09;;;;;;;1.60;1.20;;;;;;;13.27;40.79;97712.41;6343303;27;1516373;-70
2022/10/11 05:50:19;;;;;;;4.53;1.38;;;;;;;13.10;40.60;97704.66;6345972;27;1438140;-69
2022/10/11 05:53:34;;;;;;;3.28;1.30;;;;;;;12.86;41.10;97705.22;6342133;27;20669;-68
2022/10/11 05:56:48;;;;;;;4.18;1.10;;;;;;;12.78;41.21;97710.13;6342837;27;21293;-69
2022/10/11 06:00:03;;;;;;;8.48;5.10;;;;;;;12.74;41.29;97708.63;6316688;27;2246551;-68
2022/10/11 06:03:15;;;;;;;6.25;2.55;;;;;;;12.82;41.19;97711.63;6341812;27;1553880;-68
2022/10/11 06:06:26;;;;;;;4.43;1.88;;;;;;;12.81;41.18;97709.94;6337508;27;1684264;-69
2022/10/11 06:09:39;;;;;;;4.97;1.65;;;;;;;12.86;41.24;97697.31;6419263;27;20532;-70
2022/10/11 06:12:49;;;;;;;3.95;1.40;;;;;;;12.96;40.94;97703.72;6343889;27;2142939;-70
2022/10/11 06:16:22;;;;;;;2.67;1.42;;;;;;;13.16;40.64;97702.50;6393394;27;20921;-69
2022/10/11 06:19:52;;;;;;;1.05;0.93;;;;;;;13.31;40.07;97691.97;6419380;27;20122;-69
2022/10/11 06:23:19;;;;;;;1.92;1.38;;;;;;;13.35;40.10;97699.59;6393174;27;20138;-71
2022/10/11 06:26:53;;;;;;;8.30;4.93;;;;;;;13.45;39.79;97695.44;6346185;27;24995;-70
2022/10/11 06:30:04;;;;;;;4.95;2.83;;;;;;;13.66;39.04;97692.34;5750298;27;18805989;-69
2022/10/11 06:33:43;;;;;;;5.07;1.92;;;;;;;13.58;39.03;97699.91;6355959;27;20635;-69
2022/10/11 06:37:14;;;;;;;1.98;1.00;;;;;;;13.61;39.16;97690.00;6392930;27;21117;-70
2022/10/11 06:40:48;;;;;;;1.75;1.20;;;;;;;13.57;39.23;97688.50;6316909;27;20217;-70
2022/10/11 06:43:58;;;;;;;2.05;1.30;;;;;;;13.67;39.28;97680.81;5881299;27;15118381;-69
2022/10/11 06:47:27;;;;;;;3.47;1.75;;;;;;;13.63;39.31;97671.41;6316946;27;24817;-69
2022/10/11 06:51:06;;;;;;;3.15;1.38;;;;;;;13.67;39.54;97681.69;6381526;27;20571;-70
2022/10/11 06:54:33;;;;;;;3.28;1.50;;;;;;;13.82;39.26;97677.19;6393128;27;20524;-70
2022/10/11 06:58:04;;;;;;;4.90;1.60;;;;;;;14.04;38.79;97681.06;6337598;27;20142;-70
2022/10/11 07:01:45;;;;;;;5.32;2.60;;;;;;;14.01;38.95;97675.97;6367467;27;20143;-69
2022/10/11 07:04:56;;;;;;;2.88;1.60;;;;;;;14.24;38.88;97683.25;5850325;27;15952855;-69
2022/10/11 07:08:08;;;;;;;4.15;1.13;;;;;;;14.42;38.23;97683.81;5751487;27;18776967;-69
2022/10/11 07:11:39;;;;;;;2.90;1.50;;;;;;;14.43;38.57;97676.72;6445484;27;24499;-69
2022/10/11 07:15:10;;;;;;;3.40;1.73;;;;;;;14.73;37.83;97679.09;6445540;27;24490;-69
2022/10/11 07:18:40;;;;;;;3.17;1.30;;;;;;;14.95;37.67;97673.19;6393385;27;24544;-70
2022/10/11 07:21:51;;;;;;;3.40;1.42;;;;;;;15.19;37.24;97666.13;5723866;27;19526942;-70
2022/10/11 07:25:18;;;;;;;3.60;1.83;;;;;;;15.38;36.89;97664.84;6389992;27;21357;-69
2022/10/11 07:28:51;;;;;;;4.18;2.33;;;;;;;15.93;36.10;97669.63;6367473;27;20922;-69
2022/10/11 07:32:21;;;;;;;4.63;2.92;;;;;;;16.10;35.88;97657.75;6419333;27;21084;-69
2022/10/11 07:36:06;;;;;;;2.40;1.13;;;;;;;16.23;35.78;97664.84;5841240;27;15286306;-69
2022/10/11 07:39:17;;;;;;;2.75;1.33;;;;;;;16.21;35.63;97659.63;5343912;27;30186263;-70
2022/10/11 07:42:56;;;;;;;2.70;1.60;;;;;;;16.11;35.69;97669.25;6351488;27;24541;-70
2022/10/11 07:46:10;;;;;;;2.08;1.05;;;;;;;15.97;35.42;97666.78;5817841;27;15508755;-70
2022/10/11 07:49:22;;;;;;;5.30;1.35;;;;;;;15.83;35.59;97658.03;5755665;27;18654140;-69
2022/10/11 07:52:55;;;;;;;3.15;1.00;;;;;;;15.80;35.54;97650.28;6445206;27;24495;-70
2022/10/11 07:56:07;;;;;;;2.38;1.23;;;;;;;15.82;35.54;97647.50;5670215;27;21046598;-71
2022/10/11 07:59:17;;;;;;;2.38;1.10;;;;;;;15.84;35.25;97646.44;5879222;27;15174659;-70
2022/10/11 08:02:47;;;;;;;1.52;1.20;;;;;;;15.62;35.63;97641.81;6392864;27;20561;-69
2022/10/11 08:06:26;;;;;;;2.42;1.60;;;;;;;15.46;36.06;97642.09;6444742;27;24801;-69
2022/10/11 08:09:39;;;;;;;5.25;2.38;;;;;;;15.39;36.31;97640.00;5862536;27;15572238;-69
2022/10/11 08:13:11;;;;;;;7.18;2.83;;;;;;;15.29;36.62;97649.59;6393277;27;20527;-69
2022/10/11 08:16:53;;;;;;;5.07;2.33;;;;;;;15.42;36.14;97645.06;6393194;27;20603;-68
2022/10/11 08:20:05;;;;;;;6.82;2.22;;;;;;;15.38;35.63;97646.28;5753343;27;18654190;-69
2022/10/11 08:23:17;;;;;;;3.72;1.85;;;;;;;15.27;35.82;97647.88;5751297;27;18778305;-69
2022/10/11 08:26:28;;;;;;;5.20;2.65;;;;;;;15.06;36.28;97649.41;5879406;27;15171113;-69
2022/10/11 08:29:41;;;;;;;5.47;2.33;;;;;;;14.95;36.01;97641.38;5624575;27;21580166;-69
2022/10/11 08:33:20;;;;;;;5.00;3.22;;;;;;;14.83;36.25;97643.06;5280123;27;30293255;-68
2022/10/11 08:36:33;;;;;;;5.90;2.00;;;;;;;15.14;35.46;97640.91;5754758;27;18685300;-69
2022/10/11 08:40:04;;;;;;;6.95;2.42;;;;;;;15.00;35.44;97626.84;6382600;27;20191;-68
2022/10/11 08:44:19;;;;;;;6.28;2.13;;;;;;;15.53;33.67;97639.84;6377251;27;20575;-70
2022/10/11 08:47:41;;;;;;;3.22;1.00;;;;;;;15.57;32.88;97633.38;6367850;28;20047;-68
2022/10/11 08:50:50;;;;;;;3.13;1.38;;;;;;;15.34;32.57;97626.22;6367552;27;20047;-68
2022/10/11 08:54:13;;;;;;;2.30;1.48;;;;;;;15.39;32.68;97624.09;6367294;28;20035;-69
2022/10/11 08:57:19;;;;;;;3.90;1.77;;;;;;;15.48;32.13;97634.03;6367355;27;20405;-68
2022/10/11 09:00:23;;;;;;;1.65;0.98;;;;;;;15.71;31.63;97624.44;6366869;28;20359;-70
2022/10/11 09:03:43;;;;;;;2.95;1.63;;;;;;;15.83;31.31;97623.53;6367305;27;20130;-69
2022/10/11 09:07:22;;;;;;;1.92;1.35;;;;;;;15.95;31.48;97611.16;6367517;28;20126;-69
2022/10/11 09:10:55;;;;;;;2.05;1.42;;;;;;;16.42;30.34;97619.97;6367363;27;20035;-69
2022/10/11 09:14:02;;;;;;;3.53;1.58;;;;;;;16.53;30.04;97625.31;6359863;28;20047;-70
2022/10/11 09:17:25;;;;;;;2.80;1.48;;;;;;;16.64;30.18;97613.00;6367198;28;20043;-69
2022/10/11 09:20:37;;;;;;;1.90;1.10;;;;;;;16.82;29.65;97617.75;6365633;28;20043;-69
2022/10/11 09:23:57;;;;;;;2.65;1.50;;;;;;;16.74;29.42;97608.66;6366535;28;20533;-68
2022/10/11 09:27:20;;;;;;;1.95;1.40;;;;;;;16.84;29.35;97599.03;6366520;28;20035;-69
2022/10/11 09:30:25;;;;;;;5.15;2.10;;;;;;;16.88;29.58;97599.66;6366598;28;20043;-69
2022/10/11 09:33:45;;;;;;;1.05;0.77;;;;;;;17.07;28.99;97599.88;6365647;27;20073;-69
2022/10/11 09:37:00;;;;;;;2.20;1.38;;;;;;;17.05;28.77;97592.00;6366347;28;20035;-69
2022/10/11 09:40:33;;;;;;;4.53;1.85;;;;;;;17.22;28.61;97587.16;6365875;27;20047;-68
2022/10/11 09:43:36;;;;;;;1.58;0.60;;;;;;;17.15;28.45;97584.13;6349291;28;20051;-69
2022/10/11 09:46:44;;;;;;;1.00;0.70;;;;;;;16.72;28.61;97573.38;6365930;27;20043;-70
2022/10/11 09:49:55;;;;;;;1.63;0.73;;;;;;;16.75;29.01;97573.13;6366092;27;20043;-69
2022/10/11 09:53:00;;;;;;;1.10;0.80;;;;;;;16.41;29.78;97562.50;6358607;28;20041;-69
2022/10/11 09:56:03;;;;;;;4.03;0.90;;;;;;;16.16;29.84;97567.06;6348887;28;20039;-69
2022/10/11 09:59:19;;;;;;;1.43;0.57;;;;;;;15.97;30.18;97560.63;6348709;28;20568;-69
2022/10/11 10:02:22;;;;;;;2.08;0.73;;;;;;;15.88;30.36;97556.81;6348794;28;21021;-69
2022/10/11 10:05:29;;;;;;;0.93;0.60;;;;;;;15.82;30.44;97546.66;6348722;28;20047;-69
2022/10/11 10:08:30;;;;;;;1.40;0.60;;;;;;;15.68;30.67;97545.91;6348529;28;20043;-70
2022/10/11 10:11:36;;;;;;;2.40;0.90;;;;;;;15.52;30.49;97526.75;6348518;28;20044;-69
2022/10/11 10:14:40;;;;;;;1.27;0.82;;;;;;;15.44;30.68;97529.13;6346530;28;20043;-68
2022/10/11 10:17:51;;;;;;;1.73;0.95;;;;;;;15.29;30.98;97524.97;6348295;28;20404;-69
2022/10/11 10:21:01;;;;;;;1.92;0.98;;;;;;;15.31;30.98;97526.53;6348227;28;20055;-69
2022/10/11 10:24:16;;;;;;;2.28;0.60;;;;;;;15.29;31.24;97517.03;6348180;28;20035;-69
2022/10/11 10:27:25;;;;;;;0.63;0.50;;;;;;;15.13;31.54;97515.47;6348247;28;20126;-69
2022/10/11 10:30:29;;;;;;;2.75;0.60;;;;;;;15.27;31.36;97504.72;6348103;28;20043;-69
2022/10/11 10:33:33;;;;;;;2.28;0.98;;;;;;;15.26;31.50;97518.94;6348037;28;20047;-70
2022/10/11 10:36:42;;;;;;;1.42;0.88;;;;;;;15.20;31.69;97507.91;6348062;28;20036;-70
2022/10/11 10:39:56;;;;;;;1.33;0.70;;;;;;;15.37;31.26;97515.50;6348050;27;20036;-68
2022/10/11 10:43:00;;;;;;;1.30;0.95;;;;;;;15.22;31.38;97516.59;6347895;28;20511;-68
2022/10/11 10:46:39;;;;;;;1.70;0.60;;;;;;;15.29;31.65;97519.69;6347712;28;20039;-70
2022/10/11 10:49:53;;;;;;;2.90;0.90;;;;;;;14.98;32.31;97519.25;6347394;28;20097;-70
2022/10/11 10:52:57;;;;;;;1.27;0.70;;;;;;;14.86;32.66;97523.63;6347577;28;20050;-69
2022/10/11 10:56:20;;;;;;;1.75;0.70;;;;;;;14.79;33.02;97509.13;6347553;28;20520;-69
2022/10/11 10:59:52;;;;;;;3.85;0.82;;;;;;;14.87;33.24;97516.53;6347210;28;20047;-69
2022/10/11 11:02:56;;;;;;;3.95;0.70;;;;;;;14.85;33.05;97515.78;6340235;28;20050;-68
2022/10/11 11:06:14;;;;;;;3.05;0.95;;;;;;;14.98;32.97;97519.25;6346509;28;20067;-69
2022/10/11 11:09:37;;;;;;;1.30;0.70;;;;;;;14.92;33.33;97519.66;6347442;28;20493;-69
2022/10/11 11:12:59;;;;;;;4.82;1.10;;;;;;;14.93;33.33;97513.44;6347145;28;20051;-68
2022/10/11 11:17:01;;;;;;;2.25;1.27;;;;;;;14.82;33.50;97504.44;6347260;28;20043;-69
2022/10/11 11:20:16;;;;;;;5.80;1.90;;;;;;;14.85;33.58;97508.69;6244333;28;20037;-69
2022/10/11 11:23:26;;;;;;;1.88;0.95;;;;;;;14.90;33.26;97506.56;6259709;28;20048;-70
2022/10/11 11:27:08;;;;;;;2.55;1.00;;;;;;;14.88;33.14;97508.47;6345760;28;20039;-69
2022/10/11 11:30:17;;;;;;;2.95;0.90;;;;;;;14.72;33.57;97503.44;6346675;28;20067;-69
2022/10/11 11:33:47;;;;;;;1.55;0.77;;;;;;;14.67;33.45;97504.72;6346575;28;20075;-70
2022/10/11 11:37:01;;;;;;;2.20;0.73;;;;;;;14.69;33.12;97498.34;6346526;28;20031;-70
2022/10/11 11:40:15;;;;;;;2.15;0.75;;;;;;;14.61;33.40;97500.69;6346410;28;20040;-70
2022/10/11 11:43:32;;;;;;;2.78;1.17;;;;;;;14.63;33.00;97509.38;6346207;28;20047;-68
2022/10/11 11:46:43;;;;;;;2.20;1.00;;;;;;;14.54;33.03;97499.44;6346348;28;20102;-70
2022/10/11 11:49:52;;;;;;;2.10;0.90;;;;;;;14.47;32.92;97504.28;6346014;28;20120;-70
2022/10/11 11:52:58;;;;;;;2.67;1.30;;;;;;;14.42;32.86;97508.22;6344345;28;20504;-68
2022/10/11 11:56:23;;;;;;;4.13;1.33;;;;;;;14.28;33.27;97504.72;6345850;28;20036;-69
2022/10/11 11:59:30;;;;;;;1.25;0.70;;;;;;;14.11;33.44;97508.53;6345696;28;20051;-68
2022/10/11 12:02:54;;;;;;;2.70;0.95;;;;;;;14.01;33.58;97502.22;6345591;28;20523;-69
2022/10/11 12:06:24;;;;;;;3.28;0.63;;;;;;;13.97;33.63;97505.16;6345670;28;20070;-70
2022/10/11 12:09:31;;;;;;;1.42;0.65;;;;;;;13.75;33.94;97506.59;6337822;28;20505;-69
2022/10/11 12:12:38;;;;;;;1.83;0.60;;;;;;;13.63;34.16;97508.28;6344454;28;20047;-69
2022/10/11 12:16:03;;;;;;;1.05;0.60;;;;;;;13.59;34.00;97500.69;6344885;28;20076;-68
2022/10/11 12:19:06;;;;;;;2.78;0.75;;;;;;;13.34;34.23;97502.28;6345358;28;20035;-69
2022/10/11 12:22:39;;;;;;;1.42;0.60;;;;;;;13.33;34.60;97505.88;6345059;28;20035;-69
2022/10/11 12:25:44;;;;;;;1.25;0.73;;;;;;;13.11;35.08;97497.66;6345309;28;20474;-69
2022/10/11 12:29:03;;;;;;;1.75;0.80;;;;;;;12.95;35.31;97495.97;6345048;28;20035;-69
2022/10/11 12:32:10;;;;;;;2.20;0.90;;;;;;;12.89;35.31;97499.03;6345261;28;20047;-69
2022/10/11 12:35:29;;;;;;;0.82;0.70;;;;;;;12.82;35.68;97500.34;6344553;28;20076;-69
2022/10/11 12:38:38;;;;;;;3.50;1.27;;;;;;;12.82;35.76;97497.72;6343887;28;20055;-68
2022/10/11 12:42:04;;;;;;;3.85;1.55;;;;;;;12.64;36.06;97490.97;6344868;28;20051;-69
2022/10/11 12:45:12;;;;;;;1.70;0.70;;;;;;;12.54;36.40;97486.28;6344996;28;20131;-69
2022/10/11 12:48:42;;;;;;;1.77;1.00;;;;;;;12.42;36.74;97487.03;6328476;28;20044;-68
2022/10/11 12:51:58;;;;;;;1.33;0.70;;;;;;;12.39;36.71;97491.66;6320034;28;20050;-69
2022/10/11 12:55:30;;;;;;;1.55;0.95;;;;;;;12.30;37.00;97493.06;6320008;28;20044;-69
2022/10/11 12:58:45;;;;;;;1.85;0.98;;;;;;;12.16;37.32;97490.44;6319770;28;20066;-70
2022/10/11 13:01:56;;;;;;;0.95;0.50;;;;;;;12.03;37.48;97490.31;6319302;28;20097;-69
2022/10/11 13:05:20;;;;;;;1.05;0.65;;;;;;;11.95;38.06;97493.44;6319441;28;20040;-69
2022/10/11 13:08:31;;;;;;;4.10;1.80;;;;;;;11.88;38.26;97497.38;6319617;28;20177;-69
2022/10/11 13:11:42;;;;;;;4.38;2.75;;;;;;;11.85;38.28;97487.00;6319236;28;20036;-70
2022/10/11 13:15:03;;;;;;;3.72;2.40;;;;;;;11.88;38.32;97486.84;6319338;28;20036;-70
2022/10/11 13:18:17;;;;;;;5.90;4.15;;;;;;;11.82;38.23;97492.44;6319011;28;20473;-69
2022/10/11 13:21:38;;;;;;;9.20;5.37;;;;;;;11.83;38.53;97494.13;6319230;28;20044;-70
2022/10/11 13:24:42;;;;;;;6.05;3.65;;;;;;;11.77;38.69;97489.25;6319270;28;20508;-70
2022/10/11 13:27:51;;;;;;;6.57;3.95;;;;;;;11.66;39.10;97493.38;6320051;28;20122;-68
2022/10/11 13:30:56;;;;;;;5.60;3.95;;;;;;;11.62;39.23;97494.47;6323924;28;20133;-69
2022/10/11 13:34:00;;;;;;;8.90;4.90;;;;;;;11.64;39.25;97500.53;6323975;28;20031;-69
2022/10/11 13:37:14;;;;;;;7.78;3.92;;;;;;;11.66;39.25;97498.66;6324261;28;20052;-68
2022/10/11 13:40:24;;;;;;;4.95;3.67;;;;;;;11.69;39.19;97497.59;6322886;28;20036;-69
2022/10/11 13:43:32;;;;;;;5.38;3.25;;;;;;;11.64;39.13;97510.22;6323768;28;20048;-69
2022/10/11 13:46:38;;;;;;;3.05;2.20;;;;;;;11.43;39.46;97480.69;6323674;28;20130;-69
2022/10/11 13:50:02;;;;;;;8.20;4.20;;;;;;;11.51;39.73;97510.06;6323811;28;20048;-69
2022/10/11 13:53:10;;;;;;;6.90;4.05;;;;;;;11.60;39.85;97504.25;6323650;28;20127;-69
2022/10/11 13:56:18;;;;;;;5.78;2.92;;;;;;;11.62;39.59;97502.41;6323333;28;20043;-69
2022/10/11 13:59:23;;;;;;;10.35;4.47;;;;;;;11.54;39.91;97499.34;6323793;28;20040;-69
2022/10/11 14:02:26;;;;;;;9.30;5.35;;;;;;;11.56;40.10;97508.03;6323731;28;20433;-70
2022/10/11 14:05:35;;;;;;;83.00;42.38;;;;;;;11.37;40.68;97512.66;6323704;28;20040;-69
2022/10/11 14:08:57;;;;;;;84.43;42.22;;;;;;;11.19;41.86;97498.78;6323009;28;20413;-69
2022/10/11 14:12:27;;;;;;;84.60;37.22;;;;;;;11.06;42.57;97503.03;6321093;28;20040;-69
2022/10/11 14:15:35;;;;;;;79.20;39.15;;;;;;;10.94;43.51;97501.97;6321855;28;20067;-69
2022/10/11 14:18:44;;;;;;;70.90;36.50;;;;;;;10.85;44.02;97494.59;6322867;28;20561;-70
2022/10/11 14:21:45;;;;;;;70.30;34.92;;;;;;;10.78;43.99;97505.47;6322737;28;20039;-68
2022/10/11 14:24:48;;;;;;;69.07;35.40;;;;;;;10.71;44.61;97504.09;6323221;28;20043;-68
2022/10/11 14:27:50;;;;;;;71.10;35.00;;;;;;;10.67;44.71;97497.31;6322698;28;20425;-69
2022/10/11 14:30:57;;;;;;;72.07;37.33;;;;;;;10.59;45.19;97491.63;6321797;28;20036;-68
2022/10/11 14:34:03;;;;;;;67.55;35.35;;;;;;;10.56;45.66;97499.69;6323054;28;20062;-69
2022/10/11 14:37:05;;;;;;;72.80;34.40;;;;;;;10.50;46.15;97505.25;6322677;28;20058;-69
2022/10/11 14:40:16;;;;;;;68.35;35.55;;;;;;;10.48;46.59;97496.63;6322462;28;20063;-70
2022/10/11 14:43:23;;;;;;;65.43;36.75;;;;;;;10.41;46.68;97487.34;6322719;28;20040;-68
2022/10/11 14:46:29;;;;;;;68.63;35.47;;;;;;;10.40;47.04;97488.28;6322342;28;20429;-70
2022/10/11 14:49:34;;;;;;;72.57;35.85;;;;;;;10.39;47.02;97489.19;6321927;28;20055;-68
2022/10/11 14:52:40;;;;;;;77.72;38.08;;;;;;;10.34;47.10;97489.47;6322337;28;20047;-68
2022/10/11 14:55:44;;;;;;;77.78;37.17;;;;;;;10.32;47.38;97491.31;6321807;28;20048;-69
2022/10/11 14:58:48;;;;;;;80.88;37.17;;;;;;;10.31;47.54;97490.47;6322294;28;20039;-68
2022/10/11 15:01:54;;;;;;;79.15;38.53;;;;;;;10.28;47.77;97485.38;6321495;28;20117;-68
2022/10/11 15:04:55;;;;;;;81.22;41.08;;;;;;;10.25;47.56;97485.53;6321938;28;20036;-68
2022/10/11 15:07:57;;;;;;;76.13;41.20;;;;;;;10.17;47.52;97476.34;6322036;28;20047;-69
2022/10/11 15:11:01;;;;;;;78.80;40.67;;;;;;;10.18;47.73;97481.50;6320781;28;20040;-69
2022/10/11 15:14:06;;;;;;;62.45;33.00;;;;;;;10.21;47.53;97478.72;6322212;28;20040;-69
2022/10/11 15:17:11;;;;;;;86.93;42.05;;;;;;;10.23;47.93;97492.63;6321961;28;20409;-69
2022/10/11 15:20:33;;;;;;;78.05;39.85;;;;;;;10.23;48.43;97487.38;6321729;28;20032;-70